Happy Valentine's Day! 

Flight Track Log - Related Links

Times and Time Zones

All times are in EDT time to prevent confusion due to time zone crossing. See the FLG3776 flight status page for this flight to view local times or setup timezone preferences in your user account.


Time Position Orientation Groundspeed Altitude Reporting Facility
EDT Latitude Longitude Course Direction KTS MPH feet Rate Location/Type
Wed 09:26:35 PM 44.8764 -93.1853 115° Southeast 152 175 2,000  Level FAA TRACON SMA TRACON (SMA)
Wed 09:26:55 PM 44.8683 -93.1711 129° Southeast 151 174 2,800 2,700 Climbing FAA TRACON SMA TRACON (SMA)
Wed 09:27:15 PM 44.8564 -93.1508 130° Southeast 172 198 3,800 3,077 Climbing FAA TRACON SMA TRACON (SMA)
Wed 09:27:34 PM 44.8469 -93.1331 127° Southeast 181 208 4,800 2,154 Climbing FAA TRACON SMA TRACON (SMA)
Wed 09:27:54 PM 44.8378 -93.1131 123° Southeast 193 222 5,200 1,650 Climbing FAA TRACON SMA TRACON (SMA)
Wed 09:28:14 PM 44.8256 -93.0828 120° Southeast 226 260 5,900 1,950 Climbing FAA TRACON SMA TRACON (SMA)
Wed 09:28:34 PM 44.8169 -93.0556 114° Southeast 245 282 6,500 1,500 Climbing FAA TRACON SMA TRACON (SMA)
Wed 09:28:54 PM 44.8106 -93.0244 106° East 263 303 6,900 732 Climbing FAA TRACON SMA TRACON (SMA)
Wed 09:29:00 PM 44.7457 -92.7682 110° East  Level Estimated
Wed 09:29:15 PM 44.8031 -92.9858 105° East 267 307 7,000  Level FAA TRACON SMA TRACON (SMA)
Wed 09:29:35 PM 44.7969 -92.9553 106° East 263 303 7,600 2,100 Climbing FAA TRACON SMA TRACON (SMA)
Wed 09:29:55 PM 44.7908 -92.9239 105° East 268 308 8,400 2,850 Climbing FAA TRACON SMA TRACON (SMA)
Wed 09:30:00 PM 44.6999 -92.6175 118° Southeast  Level Estimated
Wed 09:30:15 PM 44.7831 -92.8844 106° East 273 314 9,500  Level FAA TRACON SMA TRACON (SMA)
Wed 09:30:35 PM 44.7764 -92.8519 106° East 277 319 10,200 1,650 Climbing FAA TRACON SMA TRACON (SMA)
Wed 09:30:55 PM 44.7697 -92.8181 105° East 287 330 10,600 1,350 Climbing FAA TRACON SMA TRACON (SMA)
Wed 09:31:00 PM 44.6539 -92.4670 115° Southeast  Level Estimated
Wed 09:31:15 PM 44.7614 -92.7733 105° East 307 353 11,100  Level FAA TRACON SMA TRACON (SMA)
Wed 09:31:36 PM 44.7533 -92.7358 107° East 320 368 11,400 1,077 Climbing FAA TRACON SMA TRACON (SMA)
Wed 09:31:54 PM 44.7422 -92.6989 113° Southeast 332 382 11,800 1,263 Climbing FAA TRACON SMA TRACON (SMA)
Wed 09:32:14 PM 44.7308 -92.6603 113° Southeast 342 394 12,200 1,950 Climbing FAA TRACON SMA TRACON (SMA)
Wed 09:32:34 PM 44.7167 -92.6125 113° Southeast 347 399 13,100 2,250 Climbing FAA TRACON SMA TRACON (SMA)
Wed 09:32:54 PM 44.7050 -92.5739 113° Southeast 347 399 13,700 1,650 Climbing FAA TRACON SMA TRACON (SMA)
Wed 09:33:14 PM 44.6903 -92.5256 113° Southeast 352 405 14,200 1,350 Climbing FAA TRACON SMA TRACON (SMA)
Wed 09:33:34 PM 44.6781 -92.4856 113° Southeast 358 412 14,600 1,350 Climbing FAA TRACON SMA TRACON (SMA)
Wed 09:33:54 PM 44.6667 -92.4453 112° Southeast 361 415 15,100 1,500 Climbing FAA TRACON SMA TRACON (SMA)
Wed 09:34:14 PM 44.6519 -92.3936 112° Southeast 369 425 15,600 1,500 Climbing FAA TRACON SMA TRACON (SMA)
Wed 09:34:34 PM 44.6389 -92.3528 114° Southeast 373 429 16,100 1,350 Climbing FAA TRACON SMA TRACON (SMA)
Wed 09:34:54 PM 44.6269 -92.3106 112° Southeast 376 433 16,500 900 Climbing FAA TRACON SMA TRACON (SMA)
Wed 09:35:14 PM 44.6117 -92.2572 112° Southeast 384 442 16,700 1,350 Climbing FAA TRACON SMA TRACON (SMA)
Wed 09:35:34 PM 44.5981 -92.2139 114° Southeast 393 452 17,400 1,950 Climbing FAA TRACON SMA TRACON (SMA)
Wed 09:35:54 PM 44.5844 -92.1719 114° Southeast 387 445 18,000 1,317 Climbing FAA TRACON SMA TRACON (SMA)
Wed 09:36:15 PM 44.5686 -92.1172 112° Southeast 392 451 18,300 1,024 Climbing FAA TRACON SMA TRACON (SMA)
Wed 09:36:35 PM 44.5558 -92.0728 112° Southeast 398 458 18,700 1,231 Climbing FAA TRACON SMA TRACON (SMA)
Wed 09:36:54 PM 44.5428 -92.0286 113° Southeast 401 461 19,100 1,350 Climbing FAA TRACON SMA TRACON (SMA)
Wed 09:37:15 PM 44.5253 -91.9733 114° Southeast 403 464 19,600 878 Climbing FAA TRACON SMA TRACON (SMA)
Wed 09:37:35 PM 44.5153 -91.9392 112° Southeast 407 468 19,700 640 Climbing FAA TRACON SMA TRACON (SMA)
Wed 09:38:30 PM 44.4675 -91.8228 120° Southeast 411 473 20,400 974 Climbing Minneapolis Center
Wed 09:39:32 PM 44.4097 -91.6406 114° Southeast 424 488 21,600 1,210 Climbing Minneapolis Center
Wed 09:40:34 PM 44.3597 -91.4878 115° Southeast 430 495 22,900 677 Climbing Minneapolis Center
Wed 09:41:36 PM 44.3119 -91.3369 114° Southeast 429 494 23,000 49 Climbing Minneapolis Center
Wed 09:42:37 PM 44.2681 -91.1869 112° Southeast 426 490 23,000  Level Minneapolis Center
Wed 09:43:39 PM 44.2197 -91.0403 115° Southeast 423 487 23,000  Level Minneapolis Center
Wed 09:44:41 PM 44.1725 -90.8958 114° Southeast 419 482 23,000  Level Minneapolis Center
Wed 09:45:42 PM 44.1225 -90.7411 114° Southeast 431 496 23,000  Level Minneapolis Center
Wed 09:46:44 PM 44.0600 -90.5497 114° Southeast 450 518 23,000  Level Minneapolis Center
Wed 09:47:46 PM 44.0083 -90.4025 116° Southeast 455 524 23,000  Level Minneapolis Center
Wed 09:48:47 PM 43.9572 -90.2453 114° Southeast 449 517 23,000  Level Minneapolis Center
Wed 09:49:49 PM 43.8972 -90.0636 115° Southeast 445 512 23,000  Level Minneapolis Center
Wed 09:50:50 PM 43.8447 -89.9078 115° Southeast 446 513 23,000  Level Minneapolis Center
Wed 09:51:52 PM 43.7925 -89.7525 115° Southeast 444 511 23,000  Level Minneapolis Center
Wed 09:52:54 PM 43.7392 -89.5997 116° Southeast 443 510 23,000  Level Minneapolis Center
Wed 09:53:55 PM 43.6869 -89.4458 115° Southeast 442 509 23,000  Level Minneapolis Center
Wed 09:54:57 PM 43.6344 -89.2939 115° Southeast 440 506 23,000  Level Minneapolis Center
Wed 09:55:53 PM 43.5814 -89.1431 116° Southeast 438 504 23,000  Level Chicago Center
Wed 09:56:54 PM 43.5289 -88.9925 116° Southeast 436 502 23,000  Level Chicago Center
Wed 09:57:55 PM 43.4764 -88.8422 116° Southeast 436 502 23,000  Level Chicago Center
Wed 09:58:56 PM 43.4231 -88.6911 116° Southeast 440 506 23,000  Level Chicago Center
Wed 09:59:57 PM 43.3614 -88.5189 116° Southeast 442 509 23,000  Level Chicago Center
Wed 10:00:58 PM 43.3081 -88.3700 116° Southeast 444 511 23,000  Level Chicago Center
Wed 10:01:59 PM 43.2539 -88.2189 116° Southeast 444 511 23,000  Level Chicago Center
Wed 10:03:01 PM 43.2014 -88.0692 116° Southeast 439 505 23,000  Level Chicago Center
Wed 10:04:02 PM 43.1467 -87.9197 117° Southeast 438 504 23,000  Level Chicago Center
Wed 10:05:03 PM 43.0928 -87.7694 116° Southeast 440 506 23,000  Level Chicago Center
Wed 10:06:04 PM 43.0383 -87.6194 116° Southeast 440 506 23,000 -98 Level Chicago Center
Wed 10:07:05 PM 42.9833 -87.4703 117° Southeast 441 507 22,800 -984 Descending Chicago Center
Wed 10:08:06 PM 42.9192 -87.3017 117° Southeast 437 503 21,000 -1,623 Descending Chicago Center
Wed 10:09:07 PM 42.8681 -87.1611 116° Southeast 420 483 19,500 -1,770 Descending Chicago Center
Wed 10:10:08 PM 42.8167 -87.0269 118° Southeast 405 466 17,400 -1,230 Descending Chicago Center
Wed 10:11:09 PM 42.7675 -86.8956 117° Southeast 395 455 17,000 -197 Descending Chicago Center
Wed 10:12:10 PM 42.7175 -86.7647 117° Southeast 392 451 17,000 49 Level Chicago Center
Wed 10:13:11 PM 42.6667 -86.6308 117° Southeast 400 460 17,100 -443 Climbing Chicago Center
Wed 10:14:12 PM 42.6158 -86.4989 118° Southeast 399 459 16,100 -1,279 Descending Chicago Center
Wed 10:15:13 PM 42.5669 -86.3708 117° Southeast 388 447 14,500 -1,623 Descending Chicago Center
Wed 10:16:14 PM 42.5181 -86.2447 118° Southeast 383 441 12,800 -1,672 Descending Chicago Center
Wed 10:17:15 PM 42.4603 -86.0939 117° Southeast 380 437 11,100 -836 Descending Chicago Center
Wed 10:18:16 PM 42.4111 -85.9747 119° Southeast 368 423 11,100 -541 Level Chicago Center
Wed 10:19:17 PM 42.3658 -85.8636 119° Southeast 348 400 10,000 -1,623 Descending Chicago Center
Wed 10:20:18 PM 42.3611 -85.7592 93° East 311 358 7,800 -1,869 Descending Chicago Center
Wed 10:21:19 PM 42.3703 -85.6569 83° East 285 328 6,200 -1,574 Descending Chicago Center

Login

Don't have an account? Register now (free) for customized features, flight alerts, and more!